04:13
Airports
History
Links
Donate
Help keep this website running!
PayPal
Bitcoin
Information on this page is community maintained and may be outdated or inaccurate and is intended for reference only or PC simulator navigating!
Always use approved charts for navigating.
EDGE
EISENACH KINDEL
EISENACH KINDEL (EDGE)
Hörselberg-Hainich, Thüringen, Germany (99820)
(U)
Lat/Lng:50° 59' 31.93" N / 10° 28' 34.65" E
50.992202 / 10.476292
Elevation:1101'ft 336mMSL
ID / ICAO:EDGE
Runways:1
Longest:(10-28) 1,705.9m 5,597ft Concrete
Distance To
Airport ID:
Airport Radio Frequencies
Tower: 125.8, 119.75
Nearby VORs <50NM
Nearby NDBs
Nearby WeatherUpdated 03-28-17 03:50 GMT
Nearby weather at EDDE, Erfurt located 21.0 nautical miles from EDGE
Altimeter: 30.18
Visibility: 6.2 statute miles
Wind: 8 knots (220°)
Temp: 2°c 36°f
Humidity: %

METAR: EDDE 280350Z 22008KT CAVOK 02/M00 Q1022 NOSIG

(Powered by phpweather)
Runway 10 / 28
Dimensions:1705.9 x 54.9m 5597' x 180'ft
Surface:Concrete
Edge Lights:Low intensity
Runway 10 [A]Runway 28 [B]
Heading:104°TH 284°TH
Lat:
Lng:
50° 59' 39"N
10° 27' 52"E
50° 59' 24.85"N
10° 29' 17.3"E
Google Map
Nearby Airports
(U) OBERMEHLER SCHLOTHEIM 20.2 NM
EDCO NNE 19°
(C) Erfurt 21.0 NM
EDDE (WX) E 92°
(C) SOEMMERDA-DERMSDORF 34.2 NM
EDBS ENE 65°
(U) Bad Hersfeld 35.0 NM
EDEN WSW 253°
(C) BAD FRANKENHAUSEN 39.1 NM
EDOF NE 47°
(C) Wasserkuppe 41.2 NM
EDER SSW 213°
(U) ALLSTEDT 49.4 NM
EDBT ENE 57°
VFR Chart
Flight Planning at SkyVector.com